createdAt,value
2023-03-22T00:02:57.210Z,69.07
2023-03-22T00:05:59.733Z,69.16
2023-03-22T00:09:01.865Z,69.22
2023-03-22T00:12:04.563Z,69.62
2023-03-22T00:15:07.611Z,69.79
2023-03-22T00:18:12.545Z,69.21
2023-03-22T00:21:16.706Z,70.25
2023-03-22T00:24:21.092Z,70.41
2023-03-22T00:27:23.273Z,70.43
2023-03-22T00:30:25.863Z,70.53
2023-03-22T00:33:30.404Z,70.88
2023-03-22T00:36:32.789Z,71.44
2023-03-22T00:39:35.213Z,71.46
2023-03-22T00:42:39.188Z,72.30
2023-03-22T00:45:41.553Z,73.22
2023-03-22T00:48:44.132Z,73.59
2023-03-22T00:51:46.488Z,73.99
2023-03-22T00:54:49.380Z,74.54
2023-03-22T00:57:51.674Z,74.39
2023-03-22T01:00:54.150Z,74.76
2023-03-22T01:03:56.493Z,74.30
2023-03-22T01:07:03.428Z,74.77
2023-03-22T01:10:06.689Z,75.07
2023-03-22T01:13:11.268Z,75.16
2023-03-22T01:16:13.493Z,76.11
2023-03-22T01:19:16.344Z,76.00
2023-03-22T01:22:18.559Z,76.00
2023-03-22T01:25:21.778Z,76.24
2023-03-22T01:28:26.862Z,78.35
2023-03-22T01:31:29.565Z,77.47
2023-03-22T01:34:31.941Z,77.48
2023-03-22T01:37:34.866Z,77.92
2023-03-22T01:40:38.524Z,78.17
2023-03-22T01:43:42.045Z,77.85
2023-03-22T01:46:46.929Z,77.63
2023-03-22T01:49:49.789Z,78.39
2023-03-22T01:52:53.381Z,79.04
2023-03-22T01:55:57.675Z,80.20
2023-03-22T01:59:01.104Z,80.14
2023-03-22T02:02:05.681Z,80.19
2023-03-22T02:05:09.005Z,80.08
2023-03-22T02:08:14.847Z,80.88
2023-03-22T02:11:30.813Z,80.50
2023-03-22T02:14:50.453Z,80.90
2023-03-22T02:18:11.268Z,81.29
2023-03-22T02:21:32.534Z,80.67
2023-03-22T02:25:07.222Z,81.70
2023-03-22T02:28:40.954Z,81.55
2023-03-22T02:31:58.725Z,82.00
2023-03-22T02:35:09.748Z,82.32
2023-03-22T02:38:15.215Z,81.60
2023-03-22T02:41:25.343Z,81.37
2023-03-22T02:44:52.154Z,80.58
2023-03-22T02:48:06.737Z,79.14
2023-03-22T02:51:19.853Z,79.59
2023-03-22T02:54:44.753Z,80.74
2023-03-22T02:57:56.869Z,81.35
2023-03-22T03:01:09.158Z,81.64
2023-03-22T03:04:18.259Z,81.31
2023-03-22T03:07:24.663Z,82.01
2023-03-22T03:10:28.474Z,82.31
2023-03-22T03:13:30.869Z,82.38
2023-03-22T03:16:37.222Z,82.84
2023-03-22T03:19:52.209Z,82.49
2023-03-22T03:23:00.099Z,82.87
2023-03-22T03:26:21.425Z,83.71
2023-03-22T03:29:36.058Z,83.60
2023-03-22T03:32:48.081Z,84.16
2023-03-22T03:35:59.864Z,84.06
2023-03-22T03:39:04.125Z,83.27
2023-03-22T03:42:12.406Z,83.02
2023-03-22T03:45:16.312Z,84.07
2023-03-22T03:48:22.300Z,85.32
2023-03-22T03:51:27.285Z,83.99
2023-03-22T03:54:29.952Z,84.69
2023-03-22T03:57:32.171Z,83.91
2023-03-22T04:00:35.564Z,84.43
2023-03-22T04:03:40.691Z,84.23
2023-03-22T04:06:43.957Z,84.35
2023-03-22T04:09:46.713Z,84.73
2023-03-22T04:12:49.214Z,83.83
2023-03-22T04:15:55.431Z,83.02
2023-03-22T04:18:58.007Z,82.65
2023-03-22T04:22:01.402Z,83.55
2023-03-22T04:25:11.663Z,83.64
2023-03-22T04:28:14.614Z,84.95
2023-03-22T04:31:18.464Z,83.46
2023-03-22T04:34:21.639Z,84.26
2023-03-22T04:37:27.482Z,85.51
2023-03-22T04:40:36.410Z,85.63
2023-03-22T04:43:39.393Z,85.25
2023-03-22T04:46:44.435Z,84.70
2023-03-22T04:49:46.720Z,84.55
2023-03-22T04:52:51.315Z,84.63
2023-03-22T04:55:57.924Z,85.33
2023-03-22T04:59:01.371Z,85.67
2023-03-22T05:02:03.927Z,85.27
2023-03-22T05:05:07.470Z,85.46
2023-03-22T05:08:09.785Z,85.07
2023-03-22T05:11:16.279Z,85.42
2023-03-22T05:14:19.870Z,86.13
2023-03-22T05:17:22.581Z,85.71
2023-03-22T05:20:25.202Z,85.49
2023-03-22T05:23:28.985Z,85.37
2023-03-22T05:26:31.606Z,86.22
2023-03-22T05:29:36.932Z,86.28
2023-03-22T05:32:43.805Z,85.79
2023-03-22T05:35:46.561Z,85.85
2023-03-22T05:38:50.650Z,86.14
2023-03-22T05:41:53.557Z,85.25
2023-03-22T05:44:56.268Z,84.70
2023-03-22T05:47:59.323Z,85.01
2023-03-22T05:51:06.078Z,85.05
2023-03-22T05:54:09.652Z,84.97
2023-03-22T05:57:13.060Z,84.55
2023-03-22T06:00:16.258Z,84.18
2023-03-22T06:03:22.382Z,83.86
2023-03-22T06:06:28.036Z,83.01
2023-03-22T06:09:31.114Z,83.19
2023-03-22T06:12:34.120Z,82.70
2023-03-22T06:15:37.417Z,82.34
2023-03-22T06:18:39.781Z,82.90
2023-03-22T06:21:43.288Z,82.56
2023-03-22T06:24:49.053Z,82.74
2023-03-22T06:27:52.324Z,81.96
2023-03-22T06:30:56.339Z,82.62
2023-03-22T06:33:59.231Z,81.04
2023-03-22T06:37:01.879Z,80.25
2023-03-22T06:40:07.369Z,80.03
2023-03-22T06:43:09.726Z,79.54
2023-03-22T06:46:14.084Z,79.01
2023-03-22T06:49:19.338Z,79.18
2023-03-22T06:52:22.150Z,78.67
2023-03-22T06:55:24.788Z,78.25
2023-03-22T06:58:27.353Z,77.63
2023-03-22T07:01:29.609Z,77.31
2023-03-22T07:04:33.105Z,76.62
2023-03-22T07:07:35.385Z,76.19
2023-03-22T07:10:39.238Z,75.90
2023-03-22T07:13:41.901Z,75.98
2023-03-22T07:16:44.781Z,74.37
2023-03-22T07:19:46.996Z,74.54
2023-03-22T07:22:50.845Z,73.58
2023-03-22T07:25:55.825Z,71.92
2023-03-22T07:28:58.761Z,71.94
2023-03-22T07:32:01.831Z,71.05
2023-03-22T07:35:05.851Z,70.13
2023-03-22T07:38:08.354Z,69.92
2023-03-22T07:41:11.652Z,69.58
2023-03-22T07:44:18.237Z,69.81
2023-03-22T07:47:37.834Z,68.54
2023-03-22T07:50:42.887Z,68.36
2023-03-22T07:53:45.362Z,67.58
2023-03-22T07:56:48.152Z,67.54
2023-03-22T07:59:50.693Z,67.08
2023-03-22T08:02:58.900Z,65.08
2023-03-22T08:06:12.838Z,65.67
2023-03-22T08:09:21.090Z,67.25
2023-03-22T08:12:29.516Z,66.08
2023-03-22T08:15:38.952Z,66.86
2023-03-22T08:19:03.700Z,66.43
2023-03-22T08:22:15.703Z,65.97
2023-03-22T08:25:26.905Z,65.36
2023-03-22T08:28:37.652Z,64.57
2023-03-22T08:31:45.234Z,64.31
2023-03-22T08:34:48.746Z,63.97
2023-03-22T08:37:57.178Z,64.55
2023-03-22T08:41:00.507Z,63.78
2023-03-22T08:44:04.615Z,62.65
2023-03-22T08:47:09.475Z,62.72
2023-03-22T08:50:13.148Z,61.32
2023-03-22T08:53:16.200Z,62.13
2023-03-22T08:56:22.639Z,62.06
2023-03-22T08:59:26.992Z,62.31
2023-03-22T09:02:30.251Z,61.74
2023-03-22T09:05:32.724Z,62.49
2023-03-22T09:08:35.338Z,62.27
2023-03-22T09:11:41.424Z,61.67
2023-03-22T09:14:46.739Z,61.64
2023-03-22T09:17:49.353Z,60.53
2023-03-22T09:20:52.775Z,60.53
2023-03-22T09:23:56.315Z,59.33
2023-03-22T09:26:59.929Z,59.30
2023-03-22T09:30:02.396Z,59.50
2023-03-22T09:33:06.517Z,60.11
2023-03-22T09:36:11.902Z,58.20
2023-03-22T09:39:16.310Z,58.32
2023-03-22T09:42:28.089Z,58.69
2023-03-22T09:45:38.661Z,58.64
2023-03-22T09:48:43.212Z,58.75
2023-03-22T09:51:48.940Z,59.29
2023-03-22T09:54:53.111Z,59.84
2023-03-22T09:58:37.046Z,60.00
2023-03-22T10:02:04.712Z,58.88
2023-03-22T10:05:50.174Z,58.14
2023-03-22T10:09:04.370Z,59.30
2023-03-22T10:12:28.221Z,60.14
2023-03-22T10:15:36.785Z,60.48
2023-03-22T10:18:45.025Z,59.55
2023-03-22T10:21:50.585Z,58.65
2023-03-22T10:24:53.890Z,59.69
2023-03-22T10:27:57.946Z,59.73
2023-03-22T10:31:02.718Z,60.11
2023-03-22T10:34:11.526Z,60.68
2023-03-22T10:37:32.145Z,61.40
2023-03-22T10:40:36.981Z,60.98
2023-03-22T10:43:42.303Z,61.21
2023-03-22T10:46:45.484Z,61.97
2023-03-22T10:49:54.641Z,61.04
2023-03-22T10:53:12.648Z,62.11
2023-03-22T10:56:18.739Z,61.41
2023-03-22T10:59:47.299Z,61.29
2023-03-22T11:02:58.392Z,61.54
2023-03-22T11:06:00.604Z,61.08
2023-03-22T11:09:22.312Z,61.19
2023-03-22T11:12:24.953Z,60.66
2023-03-22T11:15:32.880Z,60.30
2023-03-22T11:18:35.143Z,60.18
2023-03-22T11:21:37.605Z,60.68
2023-03-22T11:24:39.932Z,60.67
2023-03-22T11:27:56.458Z,61.97
2023-03-22T11:31:06.622Z,61.27
2023-03-22T11:34:17.328Z,61.24
2023-03-22T11:37:22.387Z,61.69
2023-03-22T11:40:31.509Z,60.39
2023-03-22T11:43:42.214Z,61.50
2023-03-22T11:46:58.453Z,60.82
2023-03-22T11:50:05.486Z,60.72
2023-03-22T11:53:15.070Z,60.56
2023-03-22T11:56:21.261Z,60.29
2023-03-22T11:59:29.772Z,59.27
2023-03-22T12:02:44.260Z,58.97
2023-03-22T12:05:50.177Z,58.34
2023-03-22T12:08:58.498Z,57.16
2023-03-22T12:12:03.629Z,57.24
2023-03-22T12:15:10.887Z,56.11
2023-03-22T12:18:22.915Z,56.35
2023-03-22T12:21:25.411Z,55.68
2023-03-22T12:24:32.242Z,55.38
2023-03-22T12:27:38.201Z,55.56
2023-03-22T12:30:53.863Z,54.25
2023-03-22T12:33:59.456Z,53.64
2023-03-22T12:37:05.565Z,55.02
2023-03-22T12:40:24.430Z,54.83
2023-03-22T12:43:42.592Z,52.23
2023-03-22T12:46:49.495Z,53.14
2023-03-22T12:50:12.988Z,52.16
2023-03-22T12:53:17.975Z,51.79
2023-03-22T12:56:26.324Z,52.05
2023-03-22T12:59:31.392Z,51.34
2023-03-22T13:02:36.261Z,50.56
2023-03-22T13:05:39.269Z,50.39
2023-03-22T13:09:08.801Z,50.91
2023-03-22T13:12:17.079Z,50.09
2023-03-22T13:15:41.167Z,48.46
2023-03-22T13:18:44.434Z,48.56
2023-03-22T13:21:49.189Z,45.90
2023-03-22T13:25:08.536Z,45.78
2023-03-22T13:28:26.187Z,45.02
2023-03-22T13:31:38.228Z,43.68
2023-03-22T13:34:46.937Z,44.41
2023-03-22T13:37:51.096Z,43.62
2023-03-22T13:41:02.667Z,43.85
2023-03-22T13:44:36.017Z,43.30
2023-03-22T13:47:45.389Z,44.47
2023-03-22T13:50:48.223Z,45.63
2023-03-22T13:54:00.327Z,44.33
2023-03-22T13:57:03.106Z,43.74
2023-03-22T14:00:20.710Z,42.34
2023-03-22T14:03:29.637Z,41.26
2023-03-22T14:06:36.323Z,43.52
2023-03-22T14:09:48.713Z,45.05
2023-03-22T14:13:14.451Z,45.42
2023-03-22T14:16:45.358Z,45.42
2023-03-22T14:19:49.969Z,45.47
